sensor_id;sensor_type;location;lat;lon;timestamp;P1;durP1;ratioP1;P2;durP2;ratioP2
10711;SDS011;5407;51.234;6.804;2023-06-14T00:01:07;9.43;;;8.43;;
10711;SDS011;5407;51.234;6.804;2023-06-14T00:03:36;11.45;;;9.30;;
10711;SDS011;5407;51.234;6.804;2023-06-14T00:06:04;13.35;;;9.23;;
10711;SDS011;5407;51.234;6.804;2023-06-14T00:08:31;13.07;;;9.13;;
10711;SDS011;5407;51.234;6.804;2023-06-14T00:10:58;10.27;;;9.25;;
10711;SDS011;5407;51.234;6.804;2023-06-14T00:13:25;9.73;;;8.73;;
10711;SDS011;5407;51.234;6.804;2023-06-14T00:15:52;9.75;;;8.85;;
10711;SDS011;5407;51.234;6.804;2023-06-14T00:18:20;10.27;;;8.73;;
10711;SDS011;5407;51.234;6.804;2023-06-14T00:20:50;10.30;;;9.27;;
10711;SDS011;5407;51.234;6.804;2023-06-14T00:23:17;9.75;;;8.70;;
10711;SDS011;5407;51.234;6.804;2023-06-14T00:25:44;10.23;;;9.13;;
10711;SDS011;5407;51.234;6.804;2023-06-14T00:28:11;10.07;;;9.18;;
10711;SDS011;5407;51.234;6.804;2023-06-14T00:30:38;8.88;;;8.27;;
10711;SDS011;5407;51.234;6.804;2023-06-14T00:33:05;12.07;;;9.13;;
10711;SDS011;5407;51.234;6.804;2023-06-14T00:35:31;12.60;;;9.80;;
10711;SDS011;5407;51.234;6.804;2023-06-14T00:38:00;9.68;;;7.85;;
10711;SDS011;5407;51.234;6.804;2023-06-14T00:40:27;9.35;;;7.25;;
10711;SDS011;5407;51.234;6.804;2023-06-14T00:42:53;9.30;;;7.55;;
10711;SDS011;5407;51.234;6.804;2023-06-14T00:45:20;9.77;;;6.80;;
10711;SDS011;5407;51.234;6.804;2023-06-14T00:47:47;7.45;;;5.40;;
10711;SDS011;5407;51.234;6.804;2023-06-14T00:50:17;8.48;;;5.30;;
10711;SDS011;5407;51.234;6.804;2023-06-14T00:52:47;7.65;;;5.63;;
10711;SDS011;5407;51.234;6.804;2023-06-14T00:55:16;9.43;;;5.68;;
10711;SDS011;5407;51.234;6.804;2023-06-14T00:57:44;7.25;;;5.55;;
10711;SDS011;5407;51.234;6.804;2023-06-14T01:00:12;6.35;;;5.57;;
10711;SDS011;5407;51.234;6.804;2023-06-14T01:02:40;5.70;;;5.20;;
10711;SDS011;5407;51.234;6.804;2023-06-14T01:05:08;5.82;;;5.32;;
10711;SDS011;5407;51.234;6.804;2023-06-14T01:07:43;6.32;;;5.65;;
10711;SDS011;5407;51.234;6.804;2023-06-14T01:10:26;9.57;;;5.53;;
10711;SDS011;5407;51.234;6.804;2023-06-14T01:13:05;6.40;;;5.30;;
10711;SDS011;5407;51.234;6.804;2023-06-14T01:15:37;8.55;;;5.25;;
10711;SDS011;5407;51.234;6.804;2023-06-14T01:18:07;9.38;;;5.32;;
10711;SDS011;5407;51.234;6.804;2023-06-14T01:20:42;6.35;;;5.38;;
10711;SDS011;5407;51.234;6.804;2023-06-14T01:23:13;7.35;;;6.65;;
10711;SDS011;5407;51.234;6.804;2023-06-14T01:25:40;7.07;;;5.93;;
10711;SDS011;5407;51.234;6.804;2023-06-14T01:28:11;6.90;;;5.25;;
10711;SDS011;5407;51.234;6.804;2023-06-14T01:30:40;7.50;;;5.65;;
10711;SDS011;5407;51.234;6.804;2023-06-14T01:33:10;6.53;;;5.72;;
10711;SDS011;5407;51.234;6.804;2023-06-14T01:35:38;5.60;;;5.10;;
10711;SDS011;5407;51.234;6.804;2023-06-14T01:38:06;10.18;;;7.57;;
10711;SDS011;5407;51.234;6.804;2023-06-14T01:40:35;9.10;;;8.30;;
10711;SDS011;5407;51.234;6.804;2023-06-14T01:43:03;14.10;;;12.90;;
10711;SDS011;5407;51.234;6.804;2023-06-14T01:45:31;11.60;;;10.55;;
10711;SDS011;5407;51.234;6.804;2023-06-14T01:47:59;10.55;;;9.27;;
10711;SDS011;5407;51.234;6.804;2023-06-14T01:50:27;10.20;;;9.30;;
10711;SDS011;5407;51.234;6.804;2023-06-14T01:52:56;11.88;;;9.20;;
10711;SDS011;5407;51.234;6.804;2023-06-14T01:55:23;10.02;;;9.00;;
10711;SDS011;5407;51.234;6.804;2023-06-14T01:57:54;10.10;;;9.30;;
10711;SDS011;5407;51.234;6.804;2023-06-14T02:00:21;9.95;;;8.73;;
10711;SDS011;5407;51.234;6.804;2023-06-14T02:02:51;9.80;;;9.02;;
10711;SDS011;5407;51.234;6.804;2023-06-14T02:05:18;6.05;;;5.03;;
10711;SDS011;5407;51.234;6.804;2023-06-14T02:07:45;6.45;;;5.40;;
10711;SDS011;5407;51.234;6.804;2023-06-14T02:10:15;9.18;;;5.45;;
10711;SDS011;5407;51.234;6.804;2023-06-14T02:12:42;6.68;;;5.20;;
10711;SDS011;5407;51.234;6.804;2023-06-14T02:15:11;10.23;;;6.38;;
10711;SDS011;5407;51.234;6.804;2023-06-14T02:17:42;11.57;;;6.90;;
10711;SDS011;5407;51.234;6.804;2023-06-14T02:20:09;6.95;;;6.22;;
10711;SDS011;5407;51.234;6.804;2023-06-14T02:22:37;8.35;;;6.60;;
10711;SDS011;5407;51.234;6.804;2023-06-14T02:25:06;6.97;;;5.80;;
10711;SDS011;5407;51.234;6.804;2023-06-14T02:27:34;10.30;;;8.98;;
10711;SDS011;5407;51.234;6.804;2023-06-14T02:30:02;8.68;;;7.97;;
10711;SDS011;5407;51.234;6.804;2023-06-14T02:32:33;9.73;;;8.45;;
10711;SDS011;5407;51.234;6.804;2023-06-14T02:35:00;9.30;;;8.40;;
10711;SDS011;5407;51.234;6.804;2023-06-14T02:37:27;9.25;;;8.20;;
10711;SDS011;5407;51.234;6.804;2023-06-14T02:39:55;9.30;;;8.30;;
10711;SDS011;5407;51.234;6.804;2023-06-14T02:42:22;9.02;;;8.23;;
10711;SDS011;5407;51.234;6.804;2023-06-14T02:44:49;9.55;;;8.60;;
10711;SDS011;5407;51.234;6.804;2023-06-14T02:47:17;8.98;;;8.23;;
10711;SDS011;5407;51.234;6.804;2023-06-14T02:49:45;9.25;;;8.48;;
10711;SDS011;5407;51.234;6.804;2023-06-14T02:52:13;7.75;;;7.03;;
10711;SDS011;5407;51.234;6.804;2023-06-14T02:54:41;10.02;;;6.60;;
10711;SDS011;5407;51.234;6.804;2023-06-14T02:57:08;7.15;;;6.45;;
10711;SDS011;5407;51.234;6.804;2023-06-14T02:59:36;7.03;;;6.05;;
10711;SDS011;5407;51.234;6.804;2023-06-14T03:02:04;10.52;;;6.32;;
10711;SDS011;5407;51.234;6.804;2023-06-14T03:04:33;10.30;;;5.35;;
10711;SDS011;5407;51.234;6.804;2023-06-14T03:07:08;8.30;;;5.28;;
10711;SDS011;5407;51.234;6.804;2023-06-14T03:09:37;7.82;;;5.28;;
10711;SDS011;5407;51.234;6.804;2023-06-14T03:12:06;6.65;;;5.00;;
10711;SDS011;5407;51.234;6.804;2023-06-14T03:14:35;8.50;;;5.30;;
10711;SDS011;5407;51.234;6.804;2023-06-14T03:17:02;7.40;;;5.00;;
10711;SDS011;5407;51.234;6.804;2023-06-14T03:19:31;5.57;;;5.07;;
10711;SDS011;5407;51.234;6.804;2023-06-14T03:21:58;6.10;;;4.85;;
10711;SDS011;5407;51.234;6.804;2023-06-14T03:24:28;6.80;;;5.13;;
10711;SDS011;5407;51.234;6.804;2023-06-14T03:26:57;8.35;;;5.03;;
10711;SDS011;5407;51.234;6.804;2023-06-14T03:29:27;6.00;;;5.15;;
10711;SDS011;5407;51.234;6.804;2023-06-14T03:31:58;6.05;;;5.45;;
10711;SDS011;5407;51.234;6.804;2023-06-14T03:34:32;6.53;;;5.13;;
10711;SDS011;5407;51.234;6.804;2023-06-14T03:36:59;8.25;;;5.30;;
10711;SDS011;5407;51.234;6.804;2023-06-14T03:39:28;10.10;;;5.22;;
10711;SDS011;5407;51.234;6.804;2023-06-14T03:41:55;10.13;;;5.35;;
10711;SDS011;5407;51.234;6.804;2023-06-14T03:44:22;9.50;;;5.35;;
10711;SDS011;5407;51.234;6.804;2023-06-14T03:46:49;10.65;;;4.82;;
10711;SDS011;5407;51.234;6.804;2023-06-14T03:49:16;9.25;;;5.57;;
10711;SDS011;5407;51.234;6.804;2023-06-14T03:51:44;7.88;;;5.00;;
10711;SDS011;5407;51.234;6.804;2023-06-14T03:54:18;6.47;;;5.00;;
10711;SDS011;5407;51.234;6.804;2023-06-14T03:56:48;8.57;;;4.80;;
10711;SDS011;5407;51.234;6.804;2023-06-14T03:59:15;6.88;;;4.95;;
10711;SDS011;5407;51.234;6.804;2023-06-14T04:01:42;8.93;;;5.18;;
10711;SDS011;5407;51.234;6.804;2023-06-14T04:04:10;8.20;;;4.90;;
10711;SDS011;5407;51.234;6.804;2023-06-14T04:06:37;7.75;;;5.07;;
10711;SDS011;5407;51.234;6.804;2023-06-14T04:09:06;9.00;;;5.30;;
10711;SDS011;5407;51.234;6.804;2023-06-14T04:11:34;7.72;;;5.00;;
10711;SDS011;5407;51.234;6.804;2023-06-14T04:14:03;6.72;;;5.28;;
10711;SDS011;5407;51.234;6.804;2023-06-14T04:16:30;12.35;;;5.13;;
10711;SDS011;5407;51.234;6.804;2023-06-14T04:18:59;7.57;;;5.28;;
10711;SDS011;5407;51.234;6.804;2023-06-14T04:21:26;7.93;;;5.07;;
10711;SDS011;5407;51.234;6.804;2023-06-14T04:23:55;6.00;;;4.88;;
10711;SDS011;5407;51.234;6.804;2023-06-14T04:26:26;6.18;;;5.55;;
10711;SDS011;5407;51.234;6.804;2023-06-14T04:28:56;9.05;;;5.65;;
10711;SDS011;5407;51.234;6.804;2023-06-14T04:31:29;9.43;;;5.40;;
10711;SDS011;5407;51.234;6.804;2023-06-14T04:33:59;8.15;;;5.15;;
10711;SDS011;5407;51.234;6.804;2023-06-14T04:36:31;13.30;;;5.10;;
10711;SDS011;5407;51.234;6.804;2023-06-14T04:39:00;7.93;;;5.15;;
10711;SDS011;5407;51.234;6.804;2023-06-14T04:41:29;6.07;;;5.47;;
10711;SDS011;5407;51.234;6.804;2023-06-14T04:43:57;8.80;;;5.32;;
10711;SDS011;5407;51.234;6.804;2023-06-14T04:46:27;6.30;;;5.30;;
10711;SDS011;5407;51.234;6.804;2023-06-14T04:48:58;7.75;;;5.60;;
10711;SDS011;5407;51.234;6.804;2023-06-14T04:51:27;9.82;;;5.47;;
10711;SDS011;5407;51.234;6.804;2023-06-14T04:53:56;8.93;;;5.45;;
10711;SDS011;5407;51.234;6.804;2023-06-14T04:56:25;8.98;;;5.28;;
10711;SDS011;5407;51.234;6.804;2023-06-14T04:58:52;9.85;;;9.05;;
10711;SDS011;5407;51.234;6.804;2023-06-14T05:01:20;11.35;;;9.63;;
10711;SDS011;5407;51.234;6.804;2023-06-14T05:03:48;13.63;;;9.02;;
10711;SDS011;5407;51.234;6.804;2023-06-14T05:06:18;12.45;;;9.40;;
10711;SDS011;5407;51.234;6.804;2023-06-14T05:08:45;16.50;;;9.05;;
10711;SDS011;5407;51.234;6.804;2023-06-14T05:11:12;10.32;;;9.32;;
10711;SDS011;5407;51.234;6.804;2023-06-14T05:13:39;11.52;;;4.88;;
10711;SDS011;5407;51.234;6.804;2023-06-14T05:16:07;7.43;;;4.78;;
10711;SDS011;5407;51.234;6.804;2023-06-14T05:18:35;5.28;;;4.68;;
10711;SDS011;5407;51.234;6.804;2023-06-14T05:21:02;8.77;;;4.75;;
10711;SDS011;5407;51.234;6.804;2023-06-14T05:23:32;9.18;;;5.25;;
10711;SDS011;5407;51.234;6.804;2023-06-14T05:25:59;9.48;;;5.18;;
10711;SDS011;5407;51.234;6.804;2023-06-14T05:28:28;7.60;;;4.78;;
10711;SDS011;5407;51.234;6.804;2023-06-14T05:30:56;8.43;;;5.00;;
10711;SDS011;5407;51.234;6.804;2023-06-14T05:33:23;9.32;;;4.82;;
10711;SDS011;5407;51.234;6.804;2023-06-14T05:35:50;13.05;;;5.00;;
10711;SDS011;5407;51.234;6.804;2023-06-14T05:38:17;9.50;;;4.75;;
10711;SDS011;5407;51.234;6.804;2023-06-14T05:40:45;6.78;;;4.72;;
10711;SDS011;5407;51.234;6.804;2023-06-14T05:43:12;7.38;;;4.75;;
10711;SDS011;5407;51.234;6.804;2023-06-14T05:45:38;7.25;;;4.55;;
10711;SDS011;5407;51.234;6.804;2023-06-14T05:48:05;5.13;;;4.20;;
10711;SDS011;5407;51.234;6.804;2023-06-14T05:50:32;12.02;;;4.95;;
10711;SDS011;5407;51.234;6.804;2023-06-14T05:52:59;5.68;;;4.43;;
10711;SDS011;5407;51.234;6.804;2023-06-14T05:55:26;13.30;;;4.45;;
10711;SDS011;5407;51.234;6.804;2023-06-14T05:57:54;7.25;;;4.22;;
10711;SDS011;5407;51.234;6.804;2023-06-14T06:00:21;10.57;;;4.20;;
10711;SDS011;5407;51.234;6.804;2023-06-14T06:02:48;8.98;;;4.63;;
10711;SDS011;5407;51.234;6.804;2023-06-14T06:05:15;12.93;;;4.10;;
10711;SDS011;5407;51.234;6.804;2023-06-14T06:07:42;11.30;;;4.60;;
10711;SDS011;5407;51.234;6.804;2023-06-14T06:10:10;9.13;;;4.10;;
10711;SDS011;5407;51.234;6.804;2023-06-14T06:12:37;7.45;;;4.60;;
10711;SDS011;5407;51.234;6.804;2023-06-14T06:15:06;9.05;;;4.82;;
10711;SDS011;5407;51.234;6.804;2023-06-14T06:17:37;9.35;;;4.63;;
10711;SDS011;5407;51.234;6.804;2023-06-14T06:20:04;6.55;;;4.20;;
10711;SDS011;5407;51.234;6.804;2023-06-14T06:22:33;13.82;;;4.30;;
10711;SDS011;5407;51.234;6.804;2023-06-14T06:25:00;6.22;;;4.30;;
10711;SDS011;5407;51.234;6.804;2023-06-14T06:27:27;8.73;;;3.90;;
10711;SDS011;5407;51.234;6.804;2023-06-14T06:29:54;9.95;;;4.00;;
10711;SDS011;5407;51.234;6.804;2023-06-14T06:32:23;11.15;;;4.07;;
10711;SDS011;5407;51.234;6.804;2023-06-14T06:34:50;10.77;;;4.28;;
10711;SDS011;5407;51.234;6.804;2023-06-14T06:37:17;10.43;;;4.47;;
10711;SDS011;5407;51.234;6.804;2023-06-14T06:39:44;6.53;;;3.80;;
10711;SDS011;5407;51.234;6.804;2023-06-14T06:42:12;9.95;;;4.05;;
10711;SDS011;5407;51.234;6.804;2023-06-14T06:44:41;11.82;;;4.25;;
10711;SDS011;5407;51.234;6.804;2023-06-14T06:47:08;9.57;;;3.83;;
10711;SDS011;5407;51.234;6.804;2023-06-14T06:49:37;5.95;;;3.72;;
10711;SDS011;5407;51.234;6.804;2023-06-14T06:52:05;5.25;;;3.60;;
10711;SDS011;5407;51.234;6.804;2023-06-14T06:54:33;5.00;;;3.40;;
10711;SDS011;5407;51.234;6.804;2023-06-14T06:57:00;5.90;;;3.53;;
10711;SDS011;5407;51.234;6.804;2023-06-14T06:59:27;8.55;;;3.30;;
10711;SDS011;5407;51.234;6.804;2023-06-14T07:01:55;6.55;;;3.20;;
10711;SDS011;5407;51.234;6.804;2023-06-14T07:04:22;9.52;;;3.42;;
10711;SDS011;5407;51.234;6.804;2023-06-14T07:06:50;6.90;;;3.22;;
10711;SDS011;5407;51.234;6.804;2023-06-14T07:09:17;7.35;;;3.17;;
10711;SDS011;5407;51.234;6.804;2023-06-14T07:11:46;8.65;;;3.42;;
10711;SDS011;5407;51.234;6.804;2023-06-14T07:14:14;4.97;;;3.13;;
10711;SDS011;5407;51.234;6.804;2023-06-14T07:16:41;9.77;;;3.40;;
10711;SDS011;5407;51.234;6.804;2023-06-14T07:19:08;9.63;;;3.28;;
10711;SDS011;5407;51.234;6.804;2023-06-14T07:21:35;3.97;;;3.10;;
10711;SDS011;5407;51.234;6.804;2023-06-14T07:24:05;5.78;;;3.30;;
10711;SDS011;5407;51.234;6.804;2023-06-14T07:26:33;8.48;;;3.25;;
10711;SDS011;5407;51.234;6.804;2023-06-14T07:29:00;5.15;;;3.20;;
10711;SDS011;5407;51.234;6.804;2023-06-14T07:31:28;5.90;;;3.08;;
10711;SDS011;5407;51.234;6.804;2023-06-14T07:33:55;4.25;;;3.15;;
10711;SDS011;5407;51.234;6.804;2023-06-14T07:36:22;7.03;;;3.03;;
10711;SDS011;5407;51.234;6.804;2023-06-14T07:38:48;5.93;;;2.75;;
10711;SDS011;5407;51.234;6.804;2023-06-14T07:41:17;7.55;;;2.92;;
10711;SDS011;5407;51.234;6.804;2023-06-14T07:43:44;6.45;;;3.10;;
10711;SDS011;5407;51.234;6.804;2023-06-14T07:46:11;10.65;;;3.33;;
10711;SDS011;5407;51.234;6.804;2023-06-14T07:48:38;8.02;;;3.20;;
10711;SDS011;5407;51.234;6.804;2023-06-14T07:51:04;3.55;;;3.08;;
10711;SDS011;5407;51.234;6.804;2023-06-14T07:53:31;3.72;;;3.10;;
10711;SDS011;5407;51.234;6.804;2023-06-14T07:55:58;7.80;;;3.28;;
10711;SDS011;5407;51.234;6.804;2023-06-14T07:58:26;6.70;;;3.50;;
10711;SDS011;5407;51.234;6.804;2023-06-14T08:00:53;6.88;;;3.20;;
10711;SDS011;5407;51.234;6.804;2023-06-14T08:03:20;12.00;;;3.30;;
10711;SDS011;5407;51.234;6.804;2023-06-14T08:05:47;6.80;;;3.28;;
10711;SDS011;5407;51.234;6.804;2023-06-14T08:08:15;13.90;;;3.58;;
10711;SDS011;5407;51.234;6.804;2023-06-14T08:10:42;7.10;;;3.22;;
10711;SDS011;5407;51.234;6.804;2023-06-14T08:13:09;7.13;;;3.03;;
10711;SDS011;5407;51.234;6.804;2023-06-14T08:15:37;3.47;;;2.75;;
10711;SDS011;5407;51.234;6.804;2023-06-14T08:18:04;5.78;;;2.70;;
10711;SDS011;5407;51.234;6.804;2023-06-14T08:20:31;4.97;;;2.72;;
10711;SDS011;5407;51.234;6.804;2023-06-14T08:23:00;7.18;;;3.00;;
10711;SDS011;5407;51.234;6.804;2023-06-14T08:25:27;5.28;;;2.92;;
10711;SDS011;5407;51.234;6.804;2023-06-14T08:27:54;8.70;;;2.88;;
10711;SDS011;5407;51.234;6.804;2023-06-14T08:30:21;4.40;;;2.92;;
10711;SDS011;5407;51.234;6.804;2023-06-14T08:32:49;3.00;;;2.70;;
10711;SDS011;5407;51.234;6.804;2023-06-14T08:35:17;5.65;;;2.78;;
10711;SDS011;5407;51.234;6.804;2023-06-14T08:37:43;5.85;;;3.78;;
10711;SDS011;5407;51.234;6.804;2023-06-14T08:40:15;7.95;;;2.92;;
10711;SDS011;5407;51.234;6.804;2023-06-14T08:42:46;6.07;;;2.65;;
10711;SDS011;5407;51.234;6.804;2023-06-14T08:45:16;7.20;;;2.95;;
10711;SDS011;5407;51.234;6.804;2023-06-14T08:47:43;6.72;;;2.95;;
10711;SDS011;5407;51.234;6.804;2023-06-14T08:50:12;6.75;;;3.08;;
10711;SDS011;5407;51.234;6.804;2023-06-14T08:52:41;6.20;;;2.83;;
10711;SDS011;5407;51.234;6.804;2023-06-14T08:55:15;5.97;;;3.10;;
10711;SDS011;5407;51.234;6.804;2023-06-14T08:57:45;3.17;;;2.90;;
10711;SDS011;5407;51.234;6.804;2023-06-14T09:00:13;7.18;;;2.90;;
10711;SDS011;5407;51.234;6.804;2023-06-14T09:02:40;6.43;;;2.80;;
10711;SDS011;5407;51.234;6.804;2023-06-14T09:05:09;6.85;;;2.60;;
10711;SDS011;5407;51.234;6.804;2023-06-14T09:07:40;10.30;;;2.70;;
10711;SDS011;5407;51.234;6.804;2023-06-14T09:10:08;5.00;;;2.50;;
10711;SDS011;5407;51.234;6.804;2023-06-14T09:12:35;7.88;;;2.67;;
10711;SDS011;5407;51.234;6.804;2023-06-14T09:15:03;9.23;;;2.97;;
10711;SDS011;5407;51.234;6.804;2023-06-14T09:17:33;7.47;;;2.80;;
10711;SDS011;5407;51.234;6.804;2023-06-14T09:20:01;24.45;;;3.15;;
10711;SDS011;5407;51.234;6.804;2023-06-14T09:22:31;8.77;;;2.88;;
10711;SDS011;5407;51.234;6.804;2023-06-14T09:25:00;9.40;;;3.05;;
10711;SDS011;5407;51.234;6.804;2023-06-14T09:27:27;3.78;;;2.83;;
10711;SDS011;5407;51.234;6.804;2023-06-14T09:29:54;7.53;;;2.70;;
10711;SDS011;5407;51.234;6.804;2023-06-14T09:32:21;6.10;;;2.60;;
10711;SDS011;5407;51.234;6.804;2023-06-14T09:34:48;4.25;;;2.80;;
10711;SDS011;5407;51.234;6.804;2023-06-14T09:37:26;3.05;;;2.75;;
10711;SDS011;5407;51.234;6.804;2023-06-14T09:39:55;4.78;;;2.90;;
10711;SDS011;5407;51.234;6.804;2023-06-14T09:42:23;6.20;;;2.70;;
10711;SDS011;5407;51.234;6.804;2023-06-14T09:44:51;7.43;;;2.85;;
10711;SDS011;5407;51.234;6.804;2023-06-14T09:47:19;3.85;;;2.63;;
10711;SDS011;5407;51.234;6.804;2023-06-14T09:49:46;8.27;;;2.65;;
10711;SDS011;5407;51.234;6.804;2023-06-14T09:52:14;7.03;;;2.42;;
10711;SDS011;5407;51.234;6.804;2023-06-14T09:54:42;3.15;;;2.80;;
10711;SDS011;5407;51.234;6.804;2023-06-14T09:57:11;4.03;;;2.90;;
10711;SDS011;5407;51.234;6.804;2023-06-14T09:59:41;6.05;;;4.00;;
10711;SDS011;5407;51.234;6.804;2023-06-14T10:02:11;11.13;;;3.47;;
10711;SDS011;5407;51.234;6.804;2023-06-14T10:04:41;5.72;;;3.92;;
10711;SDS011;5407;51.234;6.804;2023-06-14T10:07:13;10.77;;;3.45;;
10711;SDS011;5407;51.234;6.804;2023-06-14T10:09:43;3.20;;;2.90;;
10711;SDS011;5407;51.234;6.804;2023-06-14T10:12:15;5.93;;;3.30;;
10711;SDS011;5407;51.234;6.804;2023-06-14T10:14:48;5.50;;;2.80;;
10711;SDS011;5407;51.234;6.804;2023-06-14T10:17:20;3.63;;;3.00;;
10711;SDS011;5407;51.234;6.804;2023-06-14T10:19:54;7.00;;;2.80;;
10711;SDS011;5407;51.234;6.804;2023-06-14T10:22:26;9.20;;;4.10;;
10711;SDS011;5407;51.234;6.804;2023-06-14T10:24:59;6.40;;;3.33;;
10711;SDS011;5407;51.234;6.804;2023-06-14T10:27:26;4.95;;;3.30;;
10711;SDS011;5407;51.234;6.804;2023-06-14T10:30:05;10.85;;;2.83;;
10711;SDS011;5407;51.234;6.804;2023-06-14T10:32:34;5.40;;;3.13;;
10711;SDS011;5407;51.234;6.804;2023-06-14T10:35:02;5.43;;;2.83;;
10711;SDS011;5407;51.234;6.804;2023-06-14T10:37:32;4.15;;;2.80;;
10711;SDS011;5407;51.234;6.804;2023-06-14T10:39:59;6.97;;;2.50;;
10711;SDS011;5407;51.234;6.804;2023-06-14T10:42:31;4.28;;;2.70;;
10711;SDS011;5407;51.234;6.804;2023-06-14T10:44:58;5.22;;;2.78;;
10711;SDS011;5407;51.234;6.804;2023-06-14T10:47:28;4.35;;;2.78;;
10711;SDS011;5407;51.234;6.804;2023-06-14T10:49:57;5.68;;;2.88;;
10711;SDS011;5407;51.234;6.804;2023-06-14T10:52:32;6.55;;;3.17;;
10711;SDS011;5407;51.234;6.804;2023-06-14T10:55:02;5.43;;;2.70;;
10711;SDS011;5407;51.234;6.804;2023-06-14T10:57:34;4.90;;;2.70;;
10711;SDS011;5407;51.234;6.804;2023-06-14T11:00:02;3.42;;;2.80;;
10711;SDS011;5407;51.234;6.804;2023-06-14T11:02:51;3.63;;;2.88;;
10711;SDS011;5407;51.234;6.804;2023-06-14T11:05:25;6.50;;;2.72;;
10711;SDS011;5407;51.234;6.804;2023-06-14T11:07:58;4.35;;;3.00;;
10711;SDS011;5407;51.234;6.804;2023-06-14T11:10:41;7.80;;;2.92;;
10711;SDS011;5407;51.234;6.804;2023-06-14T11:13:10;3.42;;;2.90;;
10711;SDS011;5407;51.234;6.804;2023-06-14T11:15:38;7.25;;;6.60;;
10711;SDS011;5407;51.234;6.804;2023-06-14T11:18:11;14.05;;;7.07;;
10711;SDS011;5407;51.234;6.804;2023-06-14T11:20:39;7.88;;;7.05;;
10711;SDS011;5407;51.234;6.804;2023-06-14T11:23:06;27.33;;;8.35;;
10711;SDS011;5407;51.234;6.804;2023-06-14T11:25:33;21.20;;;8.07;;
10711;SDS011;5407;51.234;6.804;2023-06-14T11:28:00;10.48;;;7.07;;
10711;SDS011;5407;51.234;6.804;2023-06-14T11:30:27;7.20;;;6.60;;
10711;SDS011;5407;51.234;6.804;2023-06-14T11:32:54;8.10;;;6.65;;
10711;SDS011;5407;51.234;6.804;2023-06-14T11:35:23;7.93;;;6.57;;
10711;SDS011;5407;51.234;6.804;2023-06-14T11:37:52;10.80;;;6.90;;
10711;SDS011;5407;51.234;6.804;2023-06-14T11:40:22;7.38;;;6.70;;
10711;SDS011;5407;51.234;6.804;2023-06-14T11:42:50;16.85;;;7.30;;
10711;SDS011;5407;51.234;6.804;2023-06-14T11:45:24;11.27;;;7.63;;
10711;SDS011;5407;51.234;6.804;2023-06-14T11:47:53;8.98;;;7.82;;
10711;SDS011;5407;51.234;6.804;2023-06-14T11:50:22;9.00;;;6.97;;
10711;SDS011;5407;51.234;6.804;2023-06-14T11:52:52;7.45;;;6.95;;
10711;SDS011;5407;51.234;6.804;2023-06-14T11:55:19;9.57;;;7.40;;
10711;SDS011;5407;51.234;6.804;2023-06-14T11:57:46;8.35;;;7.53;;
10711;SDS011;5407;51.234;6.804;2023-06-14T12:00:13;9.00;;;8.10;;
10711;SDS011;5407;51.234;6.804;2023-06-14T12:02:42;8.57;;;7.63;;
10711;SDS011;5407;51.234;6.804;2023-06-14T12:05:09;9.18;;;7.75;;
10711;SDS011;5407;51.234;6.804;2023-06-14T12:07:37;7.95;;;7.35;;
10711;SDS011;5407;51.234;6.804;2023-06-14T12:10:07;11.90;;;9.13;;
10711;SDS011;5407;51.234;6.804;2023-06-14T12:12:37;9.25;;;8.45;;
10711;SDS011;5407;51.234;6.804;2023-06-14T12:15:06;25.35;;;8.63;;
10711;SDS011;5407;51.234;6.804;2023-06-14T12:17:35;58.42;;;11.93;;
10711;SDS011;5407;51.234;6.804;2023-06-14T12:20:07;14.88;;;8.93;;
10711;SDS011;5407;51.234;6.804;2023-06-14T12:22:40;14.32;;;9.00;;
10711;SDS011;5407;51.234;6.804;2023-06-14T12:25:23;11.98;;;9.18;;
10711;SDS011;5407;51.234;6.804;2023-06-14T12:27:53;9.48;;;8.55;;
10711;SDS011;5407;51.234;6.804;2023-06-14T12:30:20;9.63;;;8.80;;
10711;SDS011;5407;51.234;6.804;2023-06-14T12:32:47;9.70;;;8.90;;
10711;SDS011;5407;51.234;6.804;2023-06-14T12:35:16;11.73;;;8.82;;
10711;SDS011;5407;51.234;6.804;2023-06-14T12:37:45;14.57;;;8.68;;
10711;SDS011;5407;51.234;6.804;2023-06-14T12:40:12;8.38;;;7.75;;
10711;SDS011;5407;51.234;6.804;2023-06-14T12:42:39;8.52;;;6.10;;
10711;SDS011;5407;51.234;6.804;2023-06-14T12:45:06;12.25;;;8.90;;
10711;SDS011;5407;51.234;6.804;2023-06-14T12:47:34;10.02;;;8.85;;
10711;SDS011;5407;51.234;6.804;2023-06-14T12:50:01;9.23;;;8.30;;
10711;SDS011;5407;51.234;6.804;2023-06-14T12:52:27;9.30;;;7.95;;
10711;SDS011;5407;51.234;6.804;2023-06-14T12:54:57;9.35;;;8.63;;
10711;SDS011;5407;51.234;6.804;2023-06-14T12:57:23;9.38;;;8.55;;
10711;SDS011;5407;51.234;6.804;2023-06-14T12:59:50;9.45;;;8.43;;
10711;SDS011;5407;51.234;6.804;2023-06-14T13:02:18;9.10;;;8.52;;
10711;SDS011;5407;51.234;6.804;2023-06-14T13:04:47;11.75;;;7.60;;
10711;SDS011;5407;51.234;6.804;2023-06-14T13:07:14;9.45;;;8.60;;
10711;SDS011;5407;51.234;6.804;2023-06-14T13:09:41;8.18;;;7.50;;
10711;SDS011;5407;51.234;6.804;2023-06-14T13:12:11;13.90;;;8.20;;
10711;SDS011;5407;51.234;6.804;2023-06-14T13:14:37;8.38;;;7.70;;
10711;SDS011;5407;51.234;6.804;2023-06-14T13:17:05;7.82;;;5.82;;
10711;SDS011;5407;51.234;6.804;2023-06-14T13:19:32;7.05;;;6.45;;
10711;SDS011;5407;51.234;6.804;2023-06-14T13:22:00;10.02;;;6.65;;
10711;SDS011;5407;51.234;6.804;2023-06-14T13:24:27;6.80;;;6.00;;
10711;SDS011;5407;51.234;6.804;2023-06-14T13:26:54;7.30;;;6.60;;
10711;SDS011;5407;51.234;6.804;2023-06-14T13:29:23;8.75;;;6.00;;
10711;SDS011;5407;51.234;6.804;2023-06-14T13:31:50;9.00;;;6.32;;
10711;SDS011;5407;51.234;6.804;2023-06-14T13:34:17;6.93;;;6.32;;
10711;SDS011;5407;51.234;6.804;2023-06-14T13:36:44;13.73;;;9.15;;
10711;SDS011;5407;51.234;6.804;2023-06-14T13:39:11;9.98;;;8.82;;
10711;SDS011;5407;51.234;6.804;2023-06-14T13:41:38;9.30;;;8.57;;
10711;SDS011;5407;51.234;6.804;2023-06-14T13:44:05;8.90;;;8.20;;
10711;SDS011;5407;51.234;6.804;2023-06-14T13:46:33;9.90;;;8.00;;
10711;SDS011;5407;51.234;6.804;2023-06-14T13:49:00;17.77;;;8.30;;
10711;SDS011;5407;51.234;6.804;2023-06-14T13:51:27;11.02;;;8.85;;
10711;SDS011;5407;51.234;6.804;2023-06-14T13:53:54;6.10;;;5.55;;
10711;SDS011;5407;51.234;6.804;2023-06-14T13:56:21;5.55;;;5.15;;
10711;SDS011;5407;51.234;6.804;2023-06-14T13:58:49;6.95;;;4.95;;
10711;SDS011;5407;51.234;6.804;2023-06-14T14:01:17;5.20;;;4.80;;
10711;SDS011;5407;51.234;6.804;2023-06-14T14:03:46;6.22;;;5.60;;
10711;SDS011;5407;51.234;6.804;2023-06-14T14:06:13;5.50;;;5.00;;
10711;SDS011;5407;51.234;6.804;2023-06-14T14:08:40;6.18;;;4.88;;
10711;SDS011;5407;51.234;6.804;2023-06-14T14:11:06;5.10;;;4.53;;
10711;SDS011;5407;51.234;6.804;2023-06-14T14:13:34;7.43;;;4.72;;
10711;SDS011;5407;51.234;6.804;2023-06-14T14:16:03;5.45;;;4.57;;
10711;SDS011;5407;51.234;6.804;2023-06-14T14:18:31;5.40;;;4.40;;
10711;SDS011;5407;51.234;6.804;2023-06-14T14:21:00;7.47;;;4.70;;
10711;SDS011;5407;51.234;6.804;2023-06-14T14:23:27;6.13;;;4.53;;
10711;SDS011;5407;51.234;6.804;2023-06-14T14:25:54;6.93;;;4.30;;
10711;SDS011;5407;51.234;6.804;2023-06-14T14:28:21;7.55;;;4.40;;
10711;SDS011;5407;51.234;6.804;2023-06-14T14:30:47;7.78;;;4.30;;
10711;SDS011;5407;51.234;6.804;2023-06-14T14:33:14;4.47;;;4.18;;
10711;SDS011;5407;51.234;6.804;2023-06-14T14:35:42;7.53;;;4.40;;
10711;SDS011;5407;51.234;6.804;2023-06-14T14:38:12;8.25;;;4.10;;
10711;SDS011;5407;51.234;6.804;2023-06-14T14:40:39;6.80;;;4.28;;
10711;SDS011;5407;51.234;6.804;2023-06-14T14:43:06;4.20;;;3.90;;
10711;SDS011;5407;51.234;6.804;2023-06-14T14:45:33;5.53;;;3.88;;
10711;SDS011;5407;51.234;6.804;2023-06-14T14:48:00;5.40;;;4.15;;
10711;SDS011;5407;51.234;6.804;2023-06-14T14:50:28;7.93;;;4.05;;
10711;SDS011;5407;51.234;6.804;2023-06-14T14:52:55;6.30;;;3.97;;
10711;SDS011;5407;51.234;6.804;2023-06-14T14:55:23;8.13;;;5.28;;
10711;SDS011;5407;51.234;6.804;2023-06-14T14:57:50;6.47;;;4.25;;
10711;SDS011;5407;51.234;6.804;2023-06-14T15:00:17;7.32;;;4.50;;
10711;SDS011;5407;51.234;6.804;2023-06-14T15:02:45;7.85;;;4.43;;
10711;SDS011;5407;51.234;6.804;2023-06-14T15:05:12;7.90;;;4.40;;